createdAt,value
2023-01-30T00:01:04.491Z,-0.70
2023-01-30T00:03:34.162Z,-0.90
2023-01-30T00:06:01.877Z,-0.90
2023-01-30T00:08:29.591Z,-0.90
2023-01-30T00:10:57.290Z,-1.10
2023-01-30T00:13:24.959Z,-1.00
2023-01-30T00:15:52.621Z,-1.00
2023-01-30T00:18:20.334Z,-1.00
2023-01-30T00:20:49.365Z,-1.00
2023-01-30T00:23:17.055Z,-0.90
2023-01-30T00:25:46.936Z,-1.30
2023-01-30T00:28:14.776Z,-1.30
2023-01-30T00:30:42.507Z,-1.20
2023-01-30T00:33:11.236Z,-1.30
2023-01-30T00:35:38.950Z,-1.20
2023-01-30T00:38:11.392Z,-1.20
2023-01-30T00:40:39.213Z,-1.20
2023-01-30T00:43:21.118Z,-1.30
2023-01-30T00:46:04.413Z,-1.30
2023-01-30T00:48:32.568Z,-1.30
2023-01-30T00:51:00.304Z,-1.20
2023-01-30T00:53:29.696Z,-1.20
2023-01-30T00:55:57.407Z,-1.20
2023-01-30T00:58:25.741Z,-1.10
2023-01-30T01:00:53.685Z,-1.00
2023-01-30T01:03:21.660Z,-0.90
2023-01-30T01:05:49.541Z,-0.80
2023-01-30T01:08:17.275Z,-0.60
2023-01-30T01:10:46.259Z,-0.50
2023-01-30T01:13:13.977Z,-0.30
2023-01-30T01:15:42.957Z,-0.20
2023-01-30T01:18:10.661Z,0.00
2023-01-30T01:20:38.348Z,0.10
2023-01-30T01:23:06.061Z,0.20
2023-01-30T01:25:33.852Z,0.40
2023-01-30T01:28:02.838Z,0.40
2023-01-30T01:30:30.568Z,0.50
2023-01-30T01:32:58.400Z,0.50
2023-01-30T01:35:28.994Z,0.60
2023-01-30T01:37:57.452Z,0.60
2023-01-30T01:40:39.354Z,0.70
2023-01-30T01:43:17.793Z,0.70
2023-01-30T01:45:48.429Z,0.70
2023-01-30T01:48:21.555Z,0.80
2023-01-30T01:50:53.916Z,0.80
2023-01-30T01:53:25.098Z,0.80
2023-01-30T01:55:58.558Z,0.80
2023-01-30T01:58:31.277Z,0.70
2023-01-30T02:01:00.739Z,0.70
2023-01-30T02:03:36.188Z,0.70
2023-01-30T02:06:05.076Z,0.70
2023-01-30T02:08:35.832Z,0.60
2023-01-30T02:11:09.155Z,0.50
2023-01-30T02:13:39.631Z,0.50
2023-01-30T02:16:11.576Z,0.40
2023-01-30T02:18:42.724Z,0.40
2023-01-30T02:21:39.659Z,0.40
2023-01-30T02:24:33.277Z,0.50
2023-01-30T02:27:24.250Z,0.40
2023-01-30T02:30:16.779Z,0.40
2023-01-30T02:32:52.680Z,0.30
2023-01-30T02:35:29.899Z,0.20
2023-01-30T02:38:12.198Z,0.20
2023-01-30T02:40:50.242Z,0.20
2023-01-30T02:43:28.946Z,0.30
2023-01-30T02:46:01.766Z,0.30
2023-01-30T02:48:39.528Z,0.40
2023-01-30T02:51:14.960Z,0.40
2023-01-30T02:53:42.761Z,0.40
2023-01-30T02:56:10.649Z,0.40
2023-01-30T02:58:44.224Z,0.40
2023-01-30T03:01:30.481Z,0.40
2023-01-30T03:04:18.394Z,0.40
2023-01-30T03:07:04.421Z,0.40
2023-01-30T03:09:43.206Z,0.40
2023-01-30T03:12:20.477Z,0.50
2023-01-30T03:14:53.835Z,0.50
2023-01-30T03:17:24.604Z,0.60
2023-01-30T03:19:55.718Z,0.70
2023-01-30T03:22:23.580Z,0.70
2023-01-30T03:24:53.735Z,0.80
2023-01-30T03:27:23.384Z,0.80
2023-01-30T03:29:51.141Z,1.00
2023-01-30T03:32:18.858Z,1.00
2023-01-30T03:34:46.587Z,1.10
2023-01-30T03:37:15.746Z,1.20
2023-01-30T03:39:43.737Z,1.30
2023-01-30T03:42:12.065Z,1.30
2023-01-30T03:44:39.902Z,1.40
2023-01-30T03:47:08.612Z,1.40
2023-01-30T03:49:36.363Z,1.50
2023-01-30T03:52:04.115Z,1.50
2023-01-30T03:54:35.176Z,1.60
2023-01-30T03:57:02.927Z,1.70
2023-01-30T03:59:30.871Z,1.80
2023-01-30T04:02:07.421Z,1.80
2023-01-30T04:04:38.656Z,1.70
2023-01-30T04:07:10.925Z,1.80
2023-01-30T04:09:41.736Z,1.90
2023-01-30T04:12:09.885Z,2.00
2023-01-30T04:14:45.193Z,1.90
2023-01-30T04:17:32.809Z,2.00
2023-01-30T04:20:20.741Z,1.90
2023-01-30T04:22:55.588Z,1.90
2023-01-30T04:25:27.049Z,1.90
2023-01-30T04:27:55.401Z,2.00
2023-01-30T04:30:27.633Z,2.10
2023-01-30T04:33:07.972Z,2.10
2023-01-30T04:35:36.993Z,2.10
2023-01-30T04:38:04.666Z,2.10
2023-01-30T04:40:34.149Z,2.10
2023-01-30T04:43:02.018Z,2.10
2023-01-30T04:45:51.009Z,2.20
2023-01-30T04:48:20.555Z,2.20
2023-01-30T04:50:50.682Z,2.10
2023-01-30T04:53:19.930Z,2.20
2023-01-30T04:55:50.533Z,2.20
2023-01-30T04:58:20.078Z,2.10
2023-01-30T05:00:49.056Z,2.20
2023-01-30T05:03:17.397Z,2.30
2023-01-30T05:05:48.021Z,2.30
2023-01-30T05:08:15.770Z,2.30
2023-01-30T05:10:43.478Z,2.40
2023-01-30T05:13:12.506Z,2.40
2023-01-30T05:15:40.306Z,2.50
2023-01-30T05:18:08.007Z,2.50
2023-01-30T05:20:35.685Z,2.50
2023-01-30T05:23:03.399Z,2.60
2023-01-30T05:25:32.291Z,2.60
2023-01-30T05:28:02.412Z,2.60
2023-01-30T05:30:31.469Z,2.60
2023-01-30T05:32:59.639Z,2.70
2023-01-30T05:35:27.403Z,2.70
2023-01-30T05:37:55.082Z,2.70
2023-01-30T05:40:22.811Z,2.80
2023-01-30T05:42:50.502Z,2.80
2023-01-30T05:45:18.397Z,2.90
2023-01-30T05:47:51.999Z,2.90
2023-01-30T05:50:19.739Z,2.90
2023-01-30T05:52:47.505Z,2.80
2023-01-30T05:55:15.293Z,2.90
2023-01-30T05:57:43.048Z,2.90
2023-01-30T06:00:11.709Z,2.90
2023-01-30T06:02:42.501Z,2.90
2023-01-30T06:05:11.828Z,3.00
2023-01-30T06:07:40.545Z,3.00
2023-01-30T06:10:08.781Z,3.00
2023-01-30T06:12:36.474Z,3.10
2023-01-30T06:15:05.957Z,3.10
2023-01-30T06:17:33.686Z,3.00
2023-01-30T06:20:01.636Z,3.00
2023-01-30T06:22:30.899Z,3.00
2023-01-30T06:24:58.619Z,3.00
2023-01-30T06:27:26.392Z,3.10
2023-01-30T06:29:54.074Z,3.10
2023-01-30T06:32:21.770Z,3.10
2023-01-30T06:34:49.482Z,3.10
2023-01-30T06:37:17.181Z,3.10
2023-01-30T06:39:47.430Z,3.10
2023-01-30T06:42:15.154Z,3.20
2023-01-30T06:44:44.102Z,3.20
2023-01-30T06:47:11.835Z,3.30
2023-01-30T06:49:39.518Z,3.30
2023-01-30T06:52:07.207Z,3.30
2023-01-30T06:54:34.914Z,3.30
2023-01-30T06:57:04.438Z,3.30
2023-01-30T06:59:32.189Z,3.20
2023-01-30T07:02:00.024Z,3.20
2023-01-30T07:04:27.845Z,3.20
2023-01-30T07:06:55.759Z,3.20
2023-01-30T07:09:23.573Z,3.30
2023-01-30T07:11:51.312Z,3.20
2023-01-30T07:14:20.506Z,3.20
2023-01-30T07:16:48.402Z,3.20
2023-01-30T07:19:16.243Z,3.30
2023-01-30T07:21:44.067Z,3.20
2023-01-30T07:24:11.876Z,3.20
2023-01-30T07:26:39.683Z,3.30
2023-01-30T07:29:07.400Z,3.30
2023-01-30T07:31:36.477Z,3.30
2023-01-30T07:34:04.228Z,3.40
2023-01-30T07:36:33.503Z,3.40
2023-01-30T07:39:02.073Z,3.30
2023-01-30T07:41:30.051Z,3.30
2023-01-30T07:43:58.979Z,3.40
2023-01-30T07:46:27.071Z,3.40
2023-01-30T07:49:10.171Z,3.40
2023-01-30T07:51:37.920Z,3.40
2023-01-30T07:54:05.771Z,3.50
2023-01-30T07:56:35.122Z,3.40
2023-01-30T07:59:07.891Z,3.40
2023-01-30T08:01:35.684Z,3.40
2023-01-30T08:04:03.503Z,3.40
2023-01-30T08:06:38.790Z,3.50
2023-01-30T08:09:07.997Z,3.50
2023-01-30T08:11:36.297Z,3.50
2023-01-30T08:14:04.315Z,3.50
2023-01-30T08:16:33.916Z,3.50
2023-01-30T08:19:01.812Z,3.50
2023-01-30T08:21:29.514Z,3.50
2023-01-30T08:24:00.281Z,3.60
2023-01-30T08:26:30.605Z,3.60
2023-01-30T08:28:58.381Z,3.50
2023-01-30T08:31:28.587Z,3.60
2023-01-30T08:33:56.382Z,3.50
2023-01-30T08:36:25.335Z,3.50
2023-01-30T08:38:53.034Z,3.40
2023-01-30T08:41:22.283Z,3.60
2023-01-30T08:43:50.060Z,3.50
2023-01-30T08:46:19.953Z,3.50
2023-01-30T08:48:50.243Z,3.60
2023-01-30T08:51:18.503Z,3.50
2023-01-30T08:53:46.334Z,3.60
2023-01-30T08:56:16.755Z,3.60
2023-01-30T08:58:46.546Z,3.70
2023-01-30T09:01:14.384Z,3.80
2023-01-30T09:03:43.746Z,3.70
2023-01-30T09:06:11.799Z,3.80
2023-01-30T09:08:41.751Z,3.70
2023-01-30T09:11:11.797Z,3.70
2023-01-30T09:13:43.201Z,3.70
2023-01-30T09:16:13.181Z,3.80
2023-01-30T09:18:41.768Z,3.80
2023-01-30T09:21:10.917Z,3.80
2023-01-30T09:23:38.722Z,3.70
2023-01-30T09:26:06.970Z,3.70
2023-01-30T09:28:35.345Z,3.60
2023-01-30T09:31:03.688Z,3.60
2023-01-30T09:33:33.086Z,3.60
2023-01-30T09:36:00.812Z,3.70
2023-01-30T09:38:28.513Z,3.70
2023-01-30T09:41:28.197Z,3.80
2023-01-30T09:44:11.768Z,3.90
2023-01-30T09:46:47.272Z,3.80
2023-01-30T09:49:30.231Z,3.90
2023-01-30T09:52:09.702Z,4.10
2023-01-30T09:54:41.529Z,4.10
2023-01-30T09:57:21.073Z,4.00
2023-01-30T09:59:58.236Z,4.10
2023-01-30T10:02:36.538Z,4.20
2023-01-30T10:05:06.551Z,4.20
2023-01-30T10:07:47.674Z,4.10
2023-01-30T10:10:26.842Z,4.20
2023-01-30T10:13:04.528Z,4.20
2023-01-30T10:15:42.140Z,4.10
2023-01-30T10:18:27.266Z,4.00
2023-01-30T10:21:07.819Z,4.00
2023-01-30T10:23:49.233Z,4.00
2023-01-30T10:26:20.831Z,3.90
2023-01-30T10:29:06.690Z,3.90
2023-01-30T10:31:41.016Z,3.90
2023-01-30T10:34:13.527Z,3.90
2023-01-30T10:36:47.782Z,3.90
2023-01-30T10:39:25.484Z,3.90
2023-01-30T10:41:59.717Z,3.90
2023-01-30T10:44:27.506Z,4.00
2023-01-30T10:47:07.998Z,4.00
2023-01-30T10:49:42.884Z,3.90
2023-01-30T10:52:30.472Z,3.90
2023-01-30T10:55:05.549Z,3.90
2023-01-30T10:57:44.089Z,4.00
2023-01-30T11:00:24.325Z,4.00
2023-01-30T11:03:05.544Z,4.00
2023-01-30T11:05:42.775Z,4.00
2023-01-30T11:08:20.887Z,4.00
2023-01-30T11:10:48.788Z,4.00
2023-01-30T11:13:19.888Z,4.10
2023-01-30T11:15:50.558Z,4.10
2023-01-30T11:19:06.620Z,4.10
2023-01-30T11:21:14.265Z,4.10
2023-01-30T11:23:44.683Z,4.10
2023-01-30T11:26:34.735Z,4.10
2023-01-30T11:29:26.095Z,4.10
2023-01-30T11:31:55.047Z,4.10
2023-01-30T11:34:24.251Z,4.10
2023-01-30T11:36:52.395Z,4.20
2023-01-30T11:39:30.374Z,4.30
2023-01-30T11:42:01.818Z,4.30
2023-01-30T11:44:31.517Z,4.40
2023-01-30T11:47:01.259Z,4.40
2023-01-30T11:49:46.960Z,4.40
2023-01-30T11:52:19.258Z,4.30
2023-01-30T11:54:49.516Z,4.30
2023-01-30T11:57:20.319Z,4.40
2023-01-30T11:59:55.216Z,4.40
2023-01-30T12:02:27.723Z,4.50
2023-01-30T12:04:57.855Z,4.50
2023-01-30T12:07:27.461Z,4.50
2023-01-30T12:09:58.153Z,4.50
2023-01-30T12:12:33.796Z,4.50
2023-01-30T12:15:11.465Z,4.40
2023-01-30T12:17:47.240Z,4.50
2023-01-30T12:20:20.882Z,4.50
2023-01-30T12:22:58.745Z,4.60
2023-01-30T12:25:32.544Z,4.70
2023-01-30T12:28:05.401Z,4.70
2023-01-30T12:33:07.958Z,4.60
2023-01-30T12:35:58.484Z,4.50
2023-01-30T12:38:38.146Z,4.50
2023-01-30T12:41:21.637Z,4.30
2023-01-30T12:44:04.170Z,4.30
2023-01-30T12:46:49.217Z,4.30
2023-01-30T12:49:35.691Z,4.30
2023-01-30T12:52:25.161Z,4.20
2023-01-30T12:55:03.370Z,4.10
2023-01-30T12:57:39.647Z,4.10
2023-01-30T13:00:21.934Z,4.10
2023-01-30T13:03:05.192Z,4.00
2023-01-30T13:05:41.499Z,4.00
2023-01-30T13:08:27.842Z,4.00
2023-01-30T13:11:04.212Z,3.90
2023-01-30T13:13:42.906Z,4.00
2023-01-30T13:16:19.184Z,4.00
2023-01-30T13:18:53.626Z,3.90
2023-01-30T13:21:26.269Z,3.90
2023-01-30T13:24:06.800Z,3.90
2023-01-30T13:26:37.315Z,3.90
2023-01-30T13:29:14.469Z,3.90
2023-01-30T13:31:51.607Z,3.80
2023-01-30T13:34:27.463Z,3.80
2023-01-30T13:37:03.865Z,3.80
2023-01-30T13:39:41.181Z,3.80
2023-01-30T13:42:21.903Z,3.90
2023-01-30T13:44:52.959Z,3.90
2023-01-30T13:47:32.349Z,3.90
2023-01-30T13:50:16.297Z,4.00
2023-01-30T13:52:48.192Z,4.00
2023-01-30T13:55:28.087Z,4.00
2023-01-30T13:58:02.609Z,3.90
2023-01-30T14:00:34.211Z,4.00
2023-01-30T14:03:34.359Z,4.00
2023-01-30T14:06:07.988Z,4.00
2023-01-30T14:08:41.200Z,4.10
2023-01-30T14:11:38.724Z,4.10
2023-01-30T14:14:25.522Z,4.10
2023-01-30T14:16:56.769Z,4.20
2023-01-30T14:19:37.209Z,4.20
2023-01-30T14:22:19.054Z,4.20
2023-01-30T14:25:10.855Z,4.20
2023-01-30T14:27:39.985Z,4.20
2023-01-30T14:30:37.697Z,4.20
2023-01-30T14:33:31.751Z,4.10
2023-01-30T14:36:29.410Z,4.20
2023-01-30T14:39:17.738Z,4.20
2023-01-30T14:41:45.529Z,4.10
2023-01-30T14:44:49.364Z,4.10
2023-01-30T14:47:35.180Z,4.10
2023-01-30T14:50:19.715Z,4.10
2023-01-30T14:52:49.880Z,4.20
2023-01-30T14:55:21.156Z,4.30
2023-01-30T14:57:55.747Z,4.30
2023-01-30T15:00:32.018Z,4.40
2023-01-30T15:03:04.151Z,4.50
2023-01-30T15:05:34.679Z,4.60
2023-01-30T15:08:09.699Z,4.60
2023-01-30T15:10:52.070Z,4.60
2023-01-30T15:13:33.045Z,4.70
2023-01-30T15:16:16.258Z,4.70
2023-01-30T15:19:03.061Z,4.60
2023-01-30T15:21:51.723Z,4.60
2023-01-30T15:24:37.852Z,4.50
2023-01-30T15:27:14.118Z,4.50
2023-01-30T15:30:02.136Z,4.50
2023-01-30T15:32:33.636Z,4.60
2023-01-30T15:35:12.797Z,4.60
2023-01-30T15:37:48.073Z,4.70
2023-01-30T15:40:21.703Z,4.80
2023-01-30T15:42:52.310Z,4.80
2023-01-30T15:45:29.686Z,4.70
2023-01-30T15:48:15.877Z,4.80
2023-01-30T15:50:49.882Z,4.80
2023-01-30T15:53:18.189Z,4.70
2023-01-30T15:55:47.416Z,4.60
2023-01-30T15:58:20.775Z,4.70
2023-01-30T16:00:50.472Z,4.70
2023-01-30T16:03:22.687Z,4.70
2023-01-30T16:05:51.732Z,4.70
2023-01-30T16:08:22.915Z,4.80
2023-01-30T16:10:51.651Z,4.80
2023-01-30T16:13:21.040Z,4.80
2023-01-30T16:15:53.860Z,4.80
2023-01-30T16:18:28.695Z,4.80
2023-01-30T16:21:03.495Z,4.80
2023-01-30T16:23:35.610Z,4.70
2023-01-30T16:26:04.996Z,4.70
2023-01-30T16:28:33.597Z,4.70
2023-01-30T16:31:03.482Z,4.60
2023-01-30T16:33:36.285Z,4.60
2023-01-30T16:36:07.527Z,4.50
2023-01-30T16:38:39.264Z,4.50
2023-01-30T16:41:07.005Z,4.40
2023-01-30T16:43:44.173Z,4.40
2023-01-30T16:46:45.409Z,4.40
2023-01-30T16:49:20.379Z,4.40
2023-01-30T16:51:49.137Z,4.50
2023-01-30T16:54:21.740Z,4.50
2023-01-30T16:56:52.457Z,4.50
2023-01-30T16:59:23.214Z,4.50
2023-01-30T17:01:54.116Z,4.50
2023-01-30T17:04:24.774Z,4.60
2023-01-30T17:06:56.140Z,4.60
2023-01-30T17:09:42.167Z,4.60
2023-01-30T17:12:39.672Z,4.50
2023-01-30T17:15:30.767Z,4.60
2023-01-30T17:17:58.671Z,4.60
2023-01-30T17:20:37.670Z,4.60
2023-01-30T17:23:09.506Z,4.70
2023-01-30T17:25:42.628Z,4.70
2023-01-30T17:28:17.118Z,4.70
2023-01-30T17:30:46.479Z,4.80
2023-01-30T17:33:14.230Z,4.80
2023-01-30T17:35:43.339Z,4.80
2023-01-30T17:38:14.159Z,4.80
2023-01-30T17:40:42.778Z,4.70
2023-01-30T17:43:12.830Z,4.80
2023-01-30T17:45:40.628Z,4.80
2023-01-30T17:48:08.909Z,4.90
2023-01-30T17:50:39.862Z,4.90
2023-01-30T17:53:08.890Z,4.80
2023-01-30T17:55:38.153Z,4.80
2023-01-30T17:58:06.162Z,4.80
2023-01-30T18:00:33.883Z,4.80
2023-01-30T18:03:01.654Z,4.80
2023-01-30T18:05:29.397Z,4.90
2023-01-30T18:07:57.069Z,4.80
2023-01-30T18:10:26.821Z,4.80
2023-01-30T18:12:54.576Z,4.80
2023-01-30T18:15:22.333Z,4.80
2023-01-30T18:17:51.391Z,4.90
2023-01-30T18:20:21.043Z,4.90
2023-01-30T18:22:49.827Z,4.90
2023-01-30T18:25:18.331Z,4.90
2023-01-30T18:27:48.013Z,5.00
2023-01-30T18:30:17.626Z,4.90
2023-01-30T18:32:53.414Z,5.00
2023-01-30T18:35:22.969Z,5.00
2023-01-30T18:37:51.082Z,5.00
2023-01-30T18:40:19.876Z,5.00
2023-01-30T18:42:49.162Z,5.00
2023-01-30T18:45:16.927Z,5.00
2023-01-30T18:47:44.610Z,5.00
2023-01-30T18:50:12.878Z,5.10
2023-01-30T18:52:40.578Z,5.00
2023-01-30T18:55:08.862Z,5.00
2023-01-30T18:57:36.638Z,5.00
2023-01-30T19:00:08.051Z,5.00
2023-01-30T19:02:35.862Z,4.90
2023-01-30T19:05:03.655Z,5.00
2023-01-30T19:07:31.330Z,5.00
2023-01-30T19:09:59.364Z,5.00
2023-01-30T19:12:42.360Z,5.00
2023-01-30T19:15:11.772Z,5.10
2023-01-30T19:17:40.686Z,5.20
2023-01-30T19:20:11.842Z,5.20
2023-01-30T19:22:40.319Z,5.30
2023-01-30T19:25:08.871Z,5.30
2023-01-30T19:27:37.981Z,5.20
2023-01-30T19:30:06.805Z,5.20
2023-01-30T19:32:36.136Z,5.20
2023-01-30T19:35:04.199Z,5.20
2023-01-30T19:37:32.045Z,5.20
2023-01-30T19:39:59.780Z,5.20
2023-01-30T19:42:27.790Z,5.20
2023-01-30T19:44:55.502Z,5.20
2023-01-30T19:47:23.301Z,5.20
2023-01-30T19:49:52.302Z,5.30
2023-01-30T19:52:20.006Z,5.20
2023-01-30T19:54:47.878Z,5.30
2023-01-30T19:57:15.594Z,5.30
2023-01-30T19:59:44.769Z,5.30
2023-01-30T20:02:13.670Z,5.30
2023-01-30T20:04:41.429Z,5.30
2023-01-30T20:07:12.024Z,5.30
2023-01-30T20:09:39.742Z,5.40
2023-01-30T20:12:07.905Z,5.30
2023-01-30T20:14:35.677Z,5.30
2023-01-30T20:17:03.453Z,5.40
2023-01-30T20:19:31.543Z,5.30
2023-01-30T20:21:59.564Z,5.40
2023-01-30T20:24:29.042Z,5.40
2023-01-30T20:26:56.928Z,5.50
2023-01-30T20:29:24.705Z,5.50
2023-01-30T20:31:53.906Z,5.50
2023-01-30T20:34:22.300Z,5.40
2023-01-30T20:36:50.096Z,5.40
2023-01-30T20:39:20.606Z,5.40
2023-01-30T20:41:52.050Z,5.50
2023-01-30T20:44:22.210Z,5.50
2023-01-30T20:46:50.700Z,5.50
2023-01-30T20:49:20.087Z,5.50
2023-01-30T20:51:52.155Z,5.50
2023-01-30T20:54:21.434Z,5.50
2023-01-30T20:56:53.400Z,5.50
2023-01-30T20:59:23.937Z,5.50
2023-01-30T21:01:52.531Z,5.60
2023-01-30T21:04:22.882Z,5.60
2023-01-30T21:06:50.937Z,5.70
2023-01-30T21:09:20.793Z,5.70
2023-01-30T21:11:50.862Z,5.60
2023-01-30T21:14:20.020Z,5.60
2023-01-30T21:16:48.202Z,5.70
2023-01-30T21:19:17.746Z,5.70
2023-01-30T21:21:50.425Z,5.70
2023-01-30T21:24:20.864Z,5.50
2023-01-30T21:26:49.032Z,5.50
2023-01-30T21:29:19.068Z,5.40
2023-01-30T21:31:48.625Z,5.50
2023-01-30T21:34:16.832Z,5.60
2023-01-30T21:37:04.520Z,5.50
2023-01-30T21:39:46.235Z,5.60
2023-01-30T21:42:29.136Z,5.60
2023-01-30T21:44:58.780Z,5.60
2023-01-30T21:47:27.931Z,5.70
2023-01-30T21:49:55.673Z,5.70
2023-01-30T21:52:23.397Z,5.70
2023-01-30T21:54:51.128Z,5.60
2023-01-30T21:57:18.780Z,5.50
2023-01-30T21:59:46.607Z,5.50
2023-01-30T22:02:14.258Z,5.60
2023-01-30T22:04:43.305Z,5.60
2023-01-30T22:07:10.993Z,5.70
2023-01-30T22:09:38.816Z,5.60
2023-01-30T22:12:06.625Z,5.60
2023-01-30T22:14:36.343Z,5.50
2023-01-30T22:17:04.198Z,5.40
2023-01-30T22:19:35.189Z,5.30
2023-01-30T22:22:04.868Z,5.30
2023-01-30T22:24:32.854Z,5.20
2023-01-30T22:27:00.628Z,5.20
2023-01-30T22:29:29.134Z,5.10
2023-01-30T22:31:56.975Z,5.20
2023-01-30T22:34:24.738Z,5.30
2023-01-30T22:36:52.854Z,5.20
2023-01-30T22:39:21.839Z,5.20
2023-01-30T22:41:49.523Z,5.20
2023-01-30T22:44:17.459Z,5.20
2023-01-30T22:46:45.230Z,5.20
2023-01-30T22:49:12.963Z,5.20
2023-01-30T22:51:43.345Z,5.20
2023-01-30T22:54:15.440Z,5.20
2023-01-30T22:56:46.221Z,5.20
2023-01-30T22:59:14.809Z,5.20
2023-01-30T23:01:44.679Z,5.10
2023-01-30T23:04:14.244Z,5.10
2023-01-30T23:06:43.027Z,5.10
2023-01-30T23:09:18.245Z,5.10
2023-01-30T23:12:04.930Z,5.10
2023-01-30T23:14:32.747Z,5.10
2023-01-30T23:17:01.621Z,5.20
2023-01-30T23:19:28.654Z,5.20
2023-01-30T23:21:56.321Z,5.20
2023-01-30T23:24:24.013Z,5.20
2023-01-30T23:26:52.994Z,5.00
2023-01-30T23:29:21.342Z,5.00
2023-01-30T23:31:49.330Z,5.00
2023-01-30T23:34:19.137Z,5.00
2023-01-30T23:36:47.421Z,5.00
2023-01-30T23:39:15.551Z,5.00
2023-01-30T23:41:44.248Z,4.90
2023-01-30T23:44:13.429Z,4.90
2023-01-30T23:46:42.546Z,4.80
2023-01-30T23:49:12.582Z,4.80
2023-01-30T23:51:42.431Z,4.90
2023-01-30T23:54:11.108Z,4.90
2023-01-30T23:56:41.386Z,4.90
2023-01-30T23:59:09.385Z,4.80
